Time;durP1;ratioP1;P1;durP2;ratioP2;P2;SDS_P1;SDS_P2;PMS_P1;PMS_P2;Temp;Humidity;BMP_temperature;BMP_pressure;BME280_temperature;BME280_humidity;BME280_pressure;Samples;Min_cycle;Max_cycle;Signal;HPM_P1;HPM_P2
2023/05/31 04:01:21;;;;;;;7.70;4.68;;;;;;;19.97;56.48;100753.84;5579954;31;76576;-56
2023/05/31 04:04:24;;;;;;;10.38;4.85;;;;;;;19.97;56.48;100753.84;5564082;32;33094;-57
2023/05/31 04:07:26;;;;;;;9.85;4.47;;;;;;;19.49;56.22;100769.56;5563599;32;33181;-57
2023/05/31 04:10:29;;;;;;;9.02;4.55;;;;;;;19.53;57.60;100774.31;5563901;32;33087;-57
2023/05/31 04:13:32;;;;;;;8.93;4.07;;;;;;;19.63;56.41;100776.66;5564350;32;33671;-57
2023/05/31 04:16:34;;;;;;;8.48;4.05;;;;;;;19.54;56.47;100781.38;5564295;32;34318;-56
2023/05/31 04:19:37;;;;;;;10.15;4.80;;;;;;;19.53;55.21;100785.22;5563603;32;33148;-57
2023/05/31 04:22:39;;;;;;;9.45;4.50;;;;;;;19.60;61.88;100786.28;5564034;32;33919;-57
2023/05/31 04:25:44;;;;;;;6.35;4.30;;;;;;;19.66;57.21;100784.19;5563943;32;33601;-56
2023/05/31 04:28:53;;;;;;;7.62;4.35;;;;;;;19.64;56.38;100791.91;5563929;32;34448;-57
2023/05/31 04:31:56;;;;;;;7.32;4.12;;;;;;;19.70;65.66;100793.25;5563886;32;33357;-57
2023/05/31 04:35:06;;;;;;;11.43;4.32;;;;;;;19.76;57.72;100794.66;5563801;32;34239;-57
2023/05/31 04:38:11;;;;;;;8.20;3.97;;;;;;;19.71;54.53;100798.38;5561286;32;33329;-56
2023/05/31 04:41:15;;;;;;;7.45;4.15;;;;;;;19.79;60.93;100788.56;5544119;32;34475;-57
2023/05/31 04:44:18;;;;;;;10.68;4.72;;;;;;;19.92;60.30;100784.78;5544201;32;34365;-56
2023/05/31 04:47:22;;;;;;;6.97;4.25;;;;;;;19.92;57.87;100789.41;5536435;32;33093;-57
2023/05/31 04:50:24;;;;;;;5.97;4.25;;;;;;;19.90;54.33;100797.94;5524545;32;33877;-57
2023/05/31 04:53:28;;;;;;;5.60;3.87;;;;;;;19.93;57.03;100791.81;5524773;32;33474;-57
2023/05/31 04:56:31;;;;;;;8.77;3.95;;;;;;;19.93;53.90;100801.88;5524659;32;33377;-57
2023/05/31 04:59:33;;;;;;;9.00;4.22;;;;;;;19.90;54.37;100803.37;5532378;32;33621;-57
2023/05/31 05:02:36;;;;;;;6.60;3.92;;;;;;;19.97;56.15;100808.28;5542741;32;33291;-57
2023/05/31 05:05:39;;;;;;;10.63;4.47;;;;;;;20.11;56.20;100795.19;5562211;32;33212;-57
2023/05/31 05:08:46;;;;;;;10.55;4.25;;;;;;;20.15;54.38;100801.53;5555381;32;34515;-58
2023/05/31 05:11:48;;;;;;;11.15;4.53;;;;;;;20.09;53.83;100800.16;5534688;32;32832;-57
2023/05/31 05:14:51;;;;;;;8.02;4.40;;;;;;;20.12;56.25;100806.84;5536917;32;33692;-56
2023/05/31 05:17:54;;;;;;;11.90;4.80;;;;;;;20.28;60.67;100807.03;5550224;32;33261;-57
2023/05/31 05:20:57;;;;;;;7.30;4.40;;;;;;;20.29;55.31;100800.44;5549412;32;33380;-56
2023/05/31 05:24:01;;;;;;;9.73;4.32;;;;;;;20.27;53.00;100808.19;5550425;32;33390;-57
2023/05/31 05:27:03;;;;;;;9.30;4.68;;;;;;;20.37;62.24;100805.03;5550081;32;32399;-57
2023/05/31 05:30:07;;;;;;;7.35;4.05;;;;;;;20.24;53.88;100803.41;5549583;32;33218;-57
2023/05/31 05:33:09;;;;;;;7.75;4.07;;;;;;;20.23;62.93;100804.50;5548900;32;34272;-57
2023/05/31 05:36:12;;;;;;;10.02;4.75;;;;;;;20.29;55.19;100809.41;5549802;32;34398;-56
2023/05/31 05:39:16;;;;;;;15.70;4.65;;;;;;;20.34;57.01;100811.94;5550315;32;33644;-56
2023/05/31 05:42:20;;;;;;;11.15;4.30;;;;;;;20.43;56.72;100817.31;5549839;32;33547;-56
2023/05/31 05:45:22;;;;;;;9.68;4.43;;;;;;;20.41;55.25;100819.56;5550051;32;34305;-58
2023/05/31 05:48:26;;;;;;;8.40;4.32;;;;;;;20.37;60.20;100822.16;5550072;32;33633;-57
2023/05/31 05:51:28;;;;;;;6.72;4.00;;;;;;;20.48;57.73;100819.81;5549885;32;33331;-58
2023/05/31 05:54:32;;;;;;;15.40;4.53;;;;;;;20.52;56.06;100822.69;5549623;32;34300;-57
2023/05/31 05:57:34;;;;;;;13.38;4.62;;;;;;;20.59;56.18;100810.09;5549527;32;34469;-58
2023/05/31 06:00:39;;;;;;;9.85;4.18;;;;;;;20.74;60.17;100821.50;5549732;32;34293;-58
2023/05/31 06:03:42;;;;;;;11.12;4.90;;;;;;;20.64;53.86;100823.50;5549697;32;34502;-58
2023/05/31 06:06:44;;;;;;;9.95;4.20;;;;;;;20.63;54.50;100827.37;5549943;32;33361;-57
2023/05/31 06:09:50;;;;;;;9.57;4.45;;;;;;;20.71;55.64;100838.50;5549939;32;33815;-57
2023/05/31 06:12:52;;;;;;;11.77;4.68;;;;;;;20.74;60.53;100835.12;5548601;32;33699;-57
2023/05/31 06:15:57;;;;;;;17.20;4.82;;;;;;;20.78;54.55;100839.53;5531262;32;33213;-58
2023/05/31 06:19:00;;;;;;;11.88;4.65;;;;;;;20.92;56.92;100847.37;5549022;32;33633;-56
2023/05/31 06:22:03;;;;;;;9.82;4.35;;;;;;;20.85;54.59;100844.44;5546630;32;33193;-57
2023/05/31 06:25:06;;;;;;;9.70;4.15;;;;;;;20.77;55.28;100843.41;5549342;32;33700;-57
2023/05/31 06:28:08;;;;;;;8.93;4.62;;;;;;;20.83;53.85;100852.16;5549310;32;33024;-57
2023/05/31 06:31:11;;;;;;;9.45;3.90;;;;;;;20.88;53.70;100838.31;5549254;32;33265;-58
2023/05/31 06:34:14;;;;;;;11.60;5.00;;;;;;;20.84;56.12;100842.84;5532000;32;33568;-57
2023/05/31 06:37:16;;;;;;;11.38;4.35;;;;;;;20.92;54.09;100843.87;5537808;32;34318;-57
2023/05/31 06:40:19;;;;;;;9.60;4.03;;;;;;;20.88;54.48;100849.22;5538675;32;33613;-59
2023/05/31 06:43:21;;;;;;;8.95;4.68;;;;;;;21.09;54.11;100843.66;5529675;32;34366;-57
2023/05/31 06:46:26;;;;;;;13.60;4.53;;;;;;;21.21;54.40;100846.41;5529994;32;34384;-58
2023/05/31 06:49:31;;;;;;;9.50;4.47;;;;;;;21.43;55.03;100842.44;5532492;32;33561;-57
2023/05/31 06:52:36;;;;;;;9.37;4.20;;;;;;;21.69;57.05;100844.81;5548574;32;33814;-58
2023/05/31 06:55:41;;;;;;;7.05;4.45;;;;;;;21.92;53.78;100849.75;5549114;32;31518;-57
2023/05/31 06:58:46;;;;;;;9.32;4.80;;;;;;;21.87;59.29;100850.00;5549257;32;33278;-57
2023/05/31 07:01:48;;;;;;;7.78;4.12;;;;;;;22.01;52.14;100844.94;5547566;32;34067;-56
2023/05/31 07:04:51;;;;;;;7.78;4.60;;;;;;;22.05;51.59;100849.38;5548642;32;34057;-57
2023/05/31 07:07:54;;;;;;;6.60;4.07;;;;;;;22.04;51.95;100853.22;5545863;32;33757;-57
2023/05/31 07:10:56;;;;;;;8.50;4.47;;;;;;;22.09;50.06;100854.16;5546939;32;34373;-56
2023/05/31 07:14:01;;;;;;;8.13;4.05;;;;;;;22.11;51.63;100855.38;5547422;32;31744;-56
2023/05/31 07:17:04;;;;;;;10.10;4.00;;;;;;;22.16;51.23;100854.37;5547498;32;33475;-56
2023/05/31 07:20:07;;;;;;;11.98;4.55;;;;;;;22.10;51.05;100863.94;5547986;32;33558;-57
2023/05/31 07:23:10;;;;;;;7.40;3.95;;;;;;;22.11;49.73;100858.09;5546764;32;33594;-56
2023/05/31 07:26:12;;;;;;;8.70;4.40;;;;;;;22.26;52.06;100864.81;5548305;32;34001;-56
2023/05/31 07:29:15;;;;;;;7.45;3.97;;;;;;;22.37;50.45;100852.22;5547971;32;34450;-56
2023/05/31 07:32:17;;;;;;;10.65;4.53;;;;;;;22.48;48.82;100857.97;5544485;32;33170;-57
2023/05/31 07:35:20;;;;;;;11.52;4.43;;;;;;;22.56;48.46;100853.53;5536982;32;33603;-56
2023/05/31 07:38:22;;;;;;;24.40;5.30;;;;;;;22.55;49.96;100849.19;5533778;32;33600;-56
2023/05/31 07:41:25;;;;;;;12.27;4.22;;;;;;;22.59;49.25;100850.09;5545076;32;34378;-57
2023/05/31 07:44:27;;;;;;;9.13;4.22;;;;;;;22.67;47.74;100844.44;5547082;32;33146;-54
2023/05/31 07:47:31;;;;;;;15.38;4.40;;;;;;;22.81;46.32;100838.53;5545914;32;33579;-53
2023/05/31 07:50:33;;;;;;;32.95;5.15;;;;;;;22.80;46.09;100841.66;5547989;32;33885;-54
2023/05/31 07:53:36;;;;;;;11.10;3.72;;;;;;;22.78;45.65;100841.19;5548687;32;34260;-55
2023/05/31 07:56:40;;;;;;;12.60;4.32;;;;;;;22.78;47.18;100844.75;5538939;32;32360;-55
2023/05/31 07:59:42;;;;;;;12.82;4.12;;;;;;;22.80;45.57;100841.66;5533355;32;33868;-55
2023/05/31 08:02:45;;;;;;;14.13;4.07;;;;;;;22.84;45.82;100839.78;5530253;32;33657;-55
2023/05/31 08:05:49;;;;;;;15.55;5.07;;;;;;;22.85;45.07;100844.13;5543809;32;34235;-54
2023/05/31 08:08:51;;;;;;;13.43;4.50;;;;;;;22.92;45.12;100844.31;5547166;32;34299;-54
2023/05/31 08:11:54;;;;;;;27.70;4.62;;;;;;;22.95;44.76;100849.88;5534971;32;33621;-54
2023/05/31 08:14:56;;;;;;;9.75;4.10;;;;;;;22.98;46.47;100838.25;5528805;32;33663;-54
2023/05/31 08:17:59;;;;;;;14.70;4.87;;;;;;;23.00;47.26;100837.88;5528848;32;33426;-54
2023/05/31 08:21:02;;;;;;;7.22;4.10;;;;;;;;;;5534906;32;33644;-54
2023/05/31 08:24:07;;;;;;;;;;;;;;;23.10;46.28;100836.56;5534385;32;33844;-54
2023/05/31 08:27:09;;;;;;;8.52;3.80;;;;;;;23.10;45.99;100839.28;5546697;32;34052;-55
2023/05/31 08:30:12;;;;;;;8.63;3.70;;;;;;;23.15;45.98;100841.78;5546987;32;33680;-54
2023/05/31 08:33:15;;;;;;;12.18;3.85;;;;;;;23.19;45.75;100837.19;5545238;32;34400;-54
2023/05/31 08:36:17;;;;;;;9.75;4.00;;;;;;;23.28;44.81;100837.78;5545945;32;33171;-55
2023/05/31 08:39:20;;;;;;;13.57;4.93;;;;;;;23.31;45.54;100841.75;5547623;32;33753;-54
2023/05/31 08:42:27;;;;;;;9.52;4.32;;;;;;;23.40;44.59;100845.88;5547548;32;33712;-53
2023/05/31 08:45:30;;;;;;;12.70;4.75;;;;;;;23.34;45.65;100841.03;5543782;32;33846;-53
2023/05/31 08:48:40;;;;;;;11.65;4.43;;;;;;;23.44;43.62;100840.47;5549910;32;33389;-55
2023/05/31 08:51:47;;;;;;;16.45;4.75;;;;;;;23.41;43.51;100832.97;5547123;32;34287;-54
2023/05/31 08:54:51;;;;;;;30.52;4.45;;;;;;;23.52;45.04;100844.19;5544458;32;33254;-53
2023/05/31 08:57:56;;;;;;;7.18;4.12;;;;;;;23.51;43.58;100837.09;5549740;32;33879;-53
2023/05/31 09:01:01;;;;;;;13.15;4.40;;;;;;;23.52;43.41;100835.97;5546486;32;33300;-54
2023/05/31 09:04:05;;;;;;;14.80;4.30;;;;;;;23.53;47.07;100837.56;5548679;32;33950;-53
2023/05/31 09:07:08;;;;;;;13.77;4.53;;;;;;;23.57;44.53;100835.69;5548549;32;33676;-54
2023/05/31 09:10:13;;;;;;;9.95;4.55;;;;;;;23.53;44.20;100823.87;5548561;32;33621;-55
2023/05/31 09:13:16;;;;;;;;;;;;;;;23.64;44.51;100822.97;5541082;32;33578;-54
2023/05/31 09:16:24;;;;;;;8.48;4.20;;;;;;;23.61;43.22;100815.47;5538562;32;34372;-54
2023/05/31 09:19:30;;;;;;;11.32;4.37;;;;;;;23.78;44.14;100827.97;5546864;32;34129;-54
2023/05/31 09:22:33;;;;;;;11.40;4.37;;;;;;;23.73;46.19;100831.00;5546217;32;34350;-55
2023/05/31 09:25:47;;;;;;;11.50;4.50;;;;;;;23.73;43.48;100825.53;5548347;32;33756;-54
2023/05/31 09:28:51;;;;;;;12.52;4.32;;;;;;;23.72;45.11;100825.88;5540531;32;32379;-54
2023/05/31 09:32:09;;;;;;;14.20;4.78;;;;;;;23.80;45.36;100824.88;5542937;32;33663;-54
2023/05/31 09:35:20;;;;;;;25.45;4.90;;;;;;;23.85;43.20;100819.91;5549347;32;33649;-54
2023/05/31 09:38:32;;;;;;;6.45;3.97;;;;;;;23.97;43.78;100818.97;5547836;32;34413;-54
2023/05/31 09:41:35;;;;;;;47.22;6.30;;;;;;;24.01;41.91;100819.06;5543359;32;33674;-54
2023/05/31 09:44:37;;;;;;;10.88;4.07;;;;;;;24.04;43.61;100818.31;5518207;32;33532;-54
2023/05/31 09:47:40;;;;;;;13.95;4.55;;;;;;;24.03;42.17;100816.75;5532221;32;33754;-55
2023/05/31 09:50:42;;;;;;;11.50;4.53;;;;;;;24.06;42.94;100819.56;5543543;32;34333;-54
2023/05/31 09:53:45;;;;;;;14.07;4.82;;;;;;;24.12;42.29;100814.59;5546659;32;33464;-54
2023/05/31 09:56:49;;;;;;;17.85;5.00;;;;;;;24.08;42.49;100813.72;5549001;32;33150;-54
2023/05/31 09:59:58;;;;;;;14.45;4.05;;;;;;;24.10;43.73;100812.19;5543557;32;33193;-54
2023/05/31 10:03:02;;;;;;;18.62;5.20;;;;;;;24.10;44.68;100812.19;5529617;32;33712;-54
2023/05/31 10:06:07;;;;;;;6.90;4.37;;;;;;;24.21;44.01;100812.41;5547666;32;34433;-55
2023/05/31 10:09:09;;;;;;;10.45;4.68;;;;;;;24.18;44.27;100815.88;5548748;32;33668;-54
2023/05/31 10:12:17;;;;;;;14.00;4.80;;;;;;;24.25;43.12;100815.22;5533518;32;33550;-55
2023/05/31 10:15:26;;;;;;;8.48;4.72;;;;;;;24.23;44.26;100807.34;5548851;32;33811;-55
2023/05/31 10:18:32;;;;;;;17.62;5.37;;;;;;;24.29;40.43;100808.66;5549179;32;33615;-55
2023/05/31 10:21:40;;;;;;;14.82;5.50;;;;;;;24.31;43.76;100795.38;5547548;32;33710;-54
2023/05/31 10:25:02;;;;;;;6.62;4.12;;;;;;;24.36;43.02;100799.78;5533803;32;34302;-54
2023/05/31 10:28:13;;;;;;;10.50;4.70;;;;;;;24.31;43.14;100797.34;5548493;32;33610;-54
2023/05/31 10:31:16;;;;;;;12.65;5.18;;;;;;;24.39;42.56;100801.78;5546365;32;34304;-55
2023/05/31 10:34:20;;;;;;;10.07;4.97;;;;;;;24.39;43.23;100799.03;5544152;32;33667;-54
2023/05/31 10:37:23;;;;;;;9.85;4.50;;;;;;;24.50;41.30;100799.25;5547502;32;34491;-55
2023/05/31 10:40:47;;;;;;;18.62;5.60;;;;;;;24.52;40.99;100788.72;5546059;32;34292;-54
2023/05/31 10:44:02;;;;;;;11.10;4.62;;;;;;;24.56;41.60;100795.06;5545785;32;33666;-54
2023/05/31 10:47:09;;;;;;;17.17;5.62;;;;;;;24.54;41.15;100780.94;5548108;32;33360;-54
2023/05/31 10:50:22;;;;;;;15.90;5.03;;;;;;;24.56;40.89;100781.34;5541807;32;34071;-55
2023/05/31 10:53:34;;;;;;;9.20;4.70;;;;;;;24.56;41.50;100786.84;5547857;32;33602;-56
2023/05/31 10:56:38;;;;;;;20.95;5.70;;;;;;;24.53;41.89;100777.41;5546584;32;33671;-54
2023/05/31 10:59:45;;;;;;;27.30;7.32;;;;;;;24.58;42.25;100785.31;5546978;32;35191;-55
2023/05/31 11:02:49;;;;;;;15.55;6.07;;;;;;;24.59;45.76;100780.63;5547804;32;34105;-54
2023/05/31 11:05:56;;;;;;;10.00;5.05;;;;;;;24.64;44.75;100776.81;5541039;32;34500;-54
2023/05/31 11:09:15;;;;;;;9.75;4.87;;;;;;;24.69;43.29;100782.75;5545033;32;33890;-56
2023/05/31 11:12:33;;;;;;;8.57;4.70;;;;;;;24.82;40.27;100778.66;5535943;32;34269;-55
2023/05/31 11:15:46;;;;;;;11.12;5.10;;;;;;;24.81;41.00;100773.56;5522117;32;33307;-54
2023/05/31 11:18:48;;;;;;;9.95;4.57;;;;;;;24.82;40.84;100770.44;5541049;32;34977;-55
2023/05/31 11:22:15;;;;;;;13.45;5.80;;;;;;;24.88;41.33;100776.41;5538959;32;34432;-54
2023/05/31 11:25:20;;;;;;;9.32;4.95;;;;;;;24.83;41.11;100766.56;5536396;32;33639;-54
2023/05/31 11:28:26;;;;;;;10.45;4.43;;;;;;;24.76;41.63;100769.16;5536567;32;33234;-54
2023/05/31 11:31:49;;;;;;;10.13;4.90;;;;;;;24.80;40.60;100759.06;5542077;32;33242;-54
2023/05/31 11:34:56;;;;;;;16.65;5.47;;;;;;;24.77;42.05;100757.06;5542486;32;33587;-55
2023/05/31 11:38:03;;;;;;;9.30;5.07;;;;;;;24.77;41.77;100757.06;5545320;32;33662;-55
2023/05/31 11:41:06;;;;;;;8.38;4.80;;;;;;;24.76;42.17;100749.97;5535678;32;33691;-55
2023/05/31 11:44:11;;;;;;;8.60;5.00;;;;;;;24.69;41.60;100752.59;5538700;32;33884;-54
2023/05/31 11:47:18;;;;;;;9.50;4.53;;;;;;;24.63;40.33;100747.78;5539051;32;33731;-56
2023/05/31 11:50:23;;;;;;;8.13;5.10;;;;;;;24.62;40.03;100749.75;5541923;32;34768;-55
2023/05/31 11:53:27;;;;;;;7.47;4.65;;;;;;;24.69;40.44;100741.63;5543992;32;33150;-55
2023/05/31 11:56:32;;;;;;;12.68;5.15;;;;;;;24.57;41.69;100755.56;5544476;32;34533;-55
2023/05/31 11:59:37;;;;;;;7.93;4.50;;;;;;;24.55;41.82;100755.91;5540605;32;34007;-54
2023/05/31 12:02:39;;;;;;;10.38;4.55;;;;;;;24.58;42.00;100743.41;5544511;32;33615;-55
2023/05/31 12:05:49;;;;;;;10.18;4.70;;;;;;;24.58;43.41;100743.41;5537750;32;33585;-54
2023/05/31 12:08:52;;;;;;;10.00;4.30;;;;;;;24.67;41.69;100740.41;5542479;32;34311;-55
2023/05/31 12:11:58;;;;;;;10.05;4.80;;;;;;;24.70;41.54;100735.00;5541562;32;33854;-55
2023/05/31 12:15:04;;;;;;;9.73;5.00;;;;;;;24.70;40.90;100737.75;5546148;32;34194;-55
2023/05/31 12:18:06;;;;;;;11.55;5.28;;;;;;;24.91;39.36;100728.28;5545657;32;34424;-55
2023/05/31 12:21:11;;;;;;;10.50;5.28;;;;;;;24.88;39.92;100732.53;5536283;32;33635;-55
2023/05/31 12:24:15;;;;;;;12.27;5.18;;;;;;;24.96;39.67;100722.47;5534480;32;33740;-55
2023/05/31 12:27:20;;;;;;;7.53;4.72;;;;;;;24.97;39.74;100729.53;5547028;32;33723;-54
2023/05/31 12:30:44;;;;;;;10.20;4.32;;;;;;;24.90;39.14;100724.75;5550431;32;33265;-54
2023/05/31 12:34:05;;;;;;;11.43;5.00;;;;;;;24.94;40.77;100731.06;5529851;32;34758;-55
2023/05/31 12:37:10;;;;;;;12.35;5.25;;;;;;;24.92;40.83;100721.63;5540928;32;33593;-55
2023/05/31 12:40:19;;;;;;;7.78;4.85;;;;;;;24.87;40.30;100725.47;5540114;32;32382;-56
2023/05/31 12:43:25;;;;;;;10.02;4.70;;;;;;;24.89;38.94;100714.13;5538119;32;33713;-55
2023/05/31 12:46:27;;;;;;;8.45;4.80;;;;;;;24.82;38.50;100714.81;5524846;32;33653;-55
2023/05/31 12:49:33;;;;;;;8.43;4.70;;;;;;;24.75;38.42;100720.19;5540102;32;34438;-55
2023/05/31 12:52:40;;;;;;;12.05;5.50;;;;;;;24.66;39.22;100720.44;5539856;32;33625;-55
2023/05/31 12:55:43;;;;;;;6.37;4.07;;;;;;;24.78;37.84;100708.50;5543235;32;33714;-55
2023/05/31 12:58:45;;;;;;;14.80;5.30;;;;;;;24.66;39.10;100704.00;5541206;32;34362;-55
2023/05/31 13:01:48;;;;;;;7.43;4.50;;;;;;;24.62;40.15;100708.63;5538056;32;33197;-54
2023/05/31 13:04:50;;;;;;;9.98;5.20;;;;;;;24.57;38.19;100698.00;5526877;32;34447;-56
2023/05/31 13:07:53;;;;;;;6.87;4.62;;;;;;;24.63;38.74;100693.75;5544462;32;34357;-56
2023/05/31 13:10:56;;;;;;;10.48;5.45;;;;;;;24.65;39.65;100691.44;5540874;32;34405;-57
2023/05/31 13:13:58;;;;;;;6.72;4.18;;;;;;;24.75;39.23;100684.56;5541022;32;33499;-57
2023/05/31 13:17:08;;;;;;;8.63;4.78;;;;;;;24.94;37.90;100689.16;5546622;32;34244;-57
2023/05/31 13:20:11;;;;;;;8.65;4.80;;;;;;;25.07;38.06;100687.75;5549533;32;33809;-57
2023/05/31 13:23:14;;;;;;;9.10;4.60;;;;;;;25.07;37.53;100677.56;5549914;32;33653;-57
2023/05/31 13:26:18;;;;;;;8.85;4.50;;;;;;;25.12;38.44;100676.47;5545491;32;33701;-57
2023/05/31 13:29:22;;;;;;;6.95;4.60;;;;;;;25.13;37.26;100669.03;5546344;32;33719;-57
2023/05/31 13:32:24;;;;;;;6.55;4.35;;;;;;;25.14;36.78;100667.91;5541417;32;34340;-57
2023/05/31 13:35:26;;;;;;;7.05;4.65;;;;;;;25.13;36.31;100669.81;5546936;32;33767;-57
2023/05/31 13:38:29;;;;;;;6.93;4.28;;;;;;;25.10;37.35;100665.06;5549649;32;34458;-57
2023/05/31 13:41:33;;;;;;;7.50;5.00;;;;;;;25.16;37.62;100668.28;5548890;32;33668;-58
2023/05/31 13:44:35;;;;;;;10.93;5.12;;;;;;;25.25;36.49;100657.84;5549552;32;34333;-57
2023/05/31 13:47:38;;;;;;;11.00;4.97;;;;;;;25.23;37.01;100665.62;5547110;32;33784;-57
2023/05/31 13:50:40;;;;;;;9.35;4.70;;;;;;;25.43;34.93;100664.34;5548630;32;34403;-57
2023/05/31 13:53:42;;;;;;;13.07;4.95;;;;;;;25.40;35.66;100656.06;5548179;32;33750;-57
2023/05/31 13:56:45;;;;;;;10.32;5.00;;;;;;;25.30;36.62;100654.78;5532478;32;34310;-57
2023/05/31 13:59:47;;;;;;;8.73;4.95;;;;;;;25.28;36.24;100652.38;5548424;32;33615;-57
2023/05/31 14:02:52;;;;;;;9.60;4.35;;;;;;;25.29;36.11;100656.72;5531184;32;33646;-57
2023/05/31 14:05:55;;;;;;;8.73;4.90;;;;;;;25.38;36.41;100648.19;5547809;32;33633;-57
2023/05/31 14:08:57;;;;;;;11.98;5.40;;;;;;;25.34;35.65;100643.84;5542918;32;34509;-57
2023/05/31 14:12:00;;;;;;;14.70;4.93;;;;;;;25.34;36.31;100639.12;5529844;32;33492;-57
2023/05/31 14:15:04;;;;;;;8.73;4.62;;;;;;;25.27;36.85;100633.56;5533307;32;33605;-57
2023/05/31 14:18:08;;;;;;;9.05;4.60;;;;;;;25.31;36.54;100637.13;5543756;32;34154;-57
2023/05/31 14:21:10;;;;;;;9.88;4.45;;;;;;;25.31;36.98;100634.41;5548471;32;34312;-57
2023/05/31 14:24:13;;;;;;;9.30;4.65;;;;;;;25.29;35.87;100625.72;5548495;32;33698;-57
2023/05/31 14:27:18;;;;;;;7.87;4.57;;;;;;;25.33;35.05;100634.00;5541455;32;34312;-58
2023/05/31 14:30:21;;;;;;;11.68;4.72;;;;;;;25.40;35.67;100626.66;5538965;32;34571;-57
2023/05/31 14:33:25;;;;;;;9.95;4.82;;;;;;;25.47;35.53;100634.19;5547358;32;34521;-58
2023/05/31 14:36:28;;;;;;;8.70;5.68;;;;;;;25.51;35.92;100626.78;5548249;32;33620;-58
2023/05/31 14:39:30;;;;;;;11.02;5.00;;;;;;;25.35;37.01;100624.25;5548090;32;33726;-58
2023/05/31 14:42:33;;;;;;;9.02;5.22;;;;;;;25.37;37.18;100634.88;5548096;32;33736;-57
2023/05/31 14:45:35;;;;;;;11.88;4.68;;;;;;;25.39;36.97;100633.28;5539946;32;34237;-58
2023/05/31 14:48:40;;;;;;;12.73;5.03;;;;;;;25.39;37.12;100636.03;5540840;32;34433;-58
2023/05/31 14:51:42;;;;;;;9.20;5.07;;;;;;;25.36;37.33;100636.00;5548021;32;33779;-57
2023/05/31 14:54:45;;;;;;;16.37;5.10;;;;;;;25.41;36.91;100627.44;5547742;32;33711;-57
2023/05/31 14:57:47;;;;;;;8.05;4.53;;;;;;;25.41;37.29;100619.22;5548256;32;33694;-58
2023/05/31 15:00:49;;;;;;;15.15;5.20;;;;;;;25.37;36.88;100618.41;5548734;32;34436;-58
2023/05/31 15:03:52;;;;;;;9.45;5.05;;;;;;;25.37;37.71;100624.66;5548142;32;33783;-58
2023/05/31 15:06:54;;;;;;;11.85;5.05;;;;;;;25.41;36.40;100627.44;5548817;32;34333;-58
2023/05/31 15:09:56;;;;;;;9.48;4.60;;;;;;;25.37;36.45;100615.66;5536486;32;33728;-58
2023/05/31 15:12:59;;;;;;;9.65;5.07;;;;;;;25.39;36.49;100622.31;5548091;32;33615;-58
2023/05/31 15:16:01;;;;;;;10.18;4.65;;;;;;;25.58;35.52;100620.56;5549057;32;34352;-57
2023/05/31 15:19:04;;;;;;;9.63;4.65;;;;;;;25.44;36.37;100626.72;5548657;32;33700;-57
2023/05/31 15:22:06;;;;;;;15.68;4.82;;;;;;;25.36;36.82;100625.81;5548710;32;34233;-58
2023/05/31 15:25:09;;;;;;;12.32;5.32;;;;;;;25.33;39.57;100629.34;5547546;32;34379;-58
2023/05/31 15:28:11;;;;;;;6.97;4.50;;;;;;;25.40;36.18;100614.91;5543765;32;33285;-58
2023/05/31 15:31:14;;;;;;;10.93;4.68;;;;;;;25.31;36.55;100624.19;5532195;32;33461;-58
2023/05/31 15:34:16;;;;;;;11.15;5.07;;;;;;;25.42;35.43;100618.81;5548922;32;34569;-58
2023/05/31 15:37:19;;;;;;;6.05;4.62;;;;;;;25.47;36.03;100618.50;5548696;32;33814;-58
2023/05/31 15:40:21;;;;;;;6.75;4.80;;;;;;;25.44;36.48;100615.72;5542992;32;33750;-57
2023/05/31 15:43:24;;;;;;;9.35;5.37;;;;;;;25.37;35.55;100610.16;5548899;32;34385;-57
2023/05/31 15:46:26;;;;;;;8.18;4.82;;;;;;;25.37;35.29;100613.69;5547030;32;33913;-58
2023/05/31 15:49:29;;;;;;;8.90;4.70;;;;;;;25.30;35.57;100605.38;5548696;32;33719;-58
2023/05/31 15:52:31;;;;;;;8.38;4.47;;;;;;;25.35;34.76;100596.81;5548436;32;33645;-57
